Time;durP1;ratioP1;P1;durP2;ratioP2;P2;SDS_P1;SDS_P2;PMS_P1;PMS_P2;Temp;Humidity;BMP_temperature;BMP_pressure;BME280_temperature;BME280_humidity;BME280_pressure;Samples;Min_cycle;Max_cycle;Signal;HPM_P1;HPM_P2
2023/02/12 00:00:57;;;;;;;;;;;;;;;-7.77;74.14;94288.13;5030049;28;19913;-47
2023/02/12 00:03:22;;;;;;;;;;;;;;;-8.07;75.02;94278.34;5029711;28;20340;-48
2023/02/12 00:05:47;;;;;;;;;;;;;;;-8.20;75.40;94277.41;5022896;28;19920;-48
2023/02/12 00:08:15;;;;;;;;;;;;;;;-7.98;74.98;94278.56;5029307;28;19974;-49
2023/02/12 00:10:41;;;;;;;;;;;;;;;-8.09;75.55;94286.03;5029652;28;19928;-47
2023/02/12 00:13:07;;;;;;;;;;;;;;;-8.21;75.36;94283.97;5024448;28;19917;-48
2023/02/12 00:15:33;;;;;;;;;;;;;;;-8.30;76.58;94299.81;5010920;28;19991;-48
2023/02/12 00:17:58;;;;;;;;;;;;;;;-8.40;75.61;94300.72;5025524;28;19996;-47
2023/02/12 00:20:24;;;;;;;;;;;;;;;-8.36;75.52;94292.66;5019376;28;20437;-48
2023/02/12 00:22:49;;;;;;;;;;;;;;;-8.39;75.01;94296.91;5009410;28;19921;-49
2023/02/12 00:25:14;;;;;;;;;;;;;;;-8.36;75.47;94293.44;5018656;28;19960;-48
2023/02/12 00:27:39;;;;;;;;;;;;;;;-8.09;75.23;94283.34;5009913;28;19917;-49
2023/02/12 00:30:05;;;;;;;;;;;;;;;-8.27;75.59;94290.22;5019628;28;19917;-48
2023/02/12 00:32:30;;;;;;;;;;;;;;;-8.36;75.70;94290.75;5016179;28;20424;-47
2023/02/12 00:34:56;;;;;;;;;;;;;;;-8.24;75.70;94282.09;5020700;28;19925;-48
2023/02/12 00:37:21;;;;;;;;;;;;;;;-8.28;74.44;94277.97;5024686;28;19913;-48
2023/02/12 00:39:46;;;;;;;;;;;;;;;-8.17;73.90;94281.22;5011900;28;19963;-47
2023/02/12 00:42:11;;;;;;;;;;;;;;;-8.40;74.23;94276.63;5028916;28;20442;-46
2023/02/12 00:44:37;;;;;;;;;;;;;;;-8.34;74.19;94269.69;5026907;28;19936;-48
2023/02/12 00:47:03;;;;;;;;;;;;;;;-8.18;73.77;94259.03;5022052;28;19924;-46
2023/02/12 00:49:33;;;;;;;;;;;;;;;-8.07;73.28;94266.84;5022831;28;20340;-47
2023/02/12 00:51:58;;;;;;;;;;;;;;;-8.24;73.49;94251.88;5024064;28;19928;-46
2023/02/12 00:54:24;;;;;;;;;;;;;;;-8.17;73.45;94249.81;5028399;28;19921;-47
2023/02/12 00:56:49;;;;;;;;;;;;;;;-8.07;73.21;94248.88;5023094;28;19926;-46
2023/02/12 00:59:14;;;;;;;;;;;;;;;-8.38;73.43;94247.53;5026267;28;20323;-47
2023/02/12 01:01:39;;;;;;;;;;;;;;;-8.52;73.74;94250.47;5028200;28;20034;-46
2023/02/12 01:04:05;;;;;;;;;;;;;;;-8.31;73.66;94250.09;5028356;28;19917;-47
2023/02/12 01:06:30;;;;;;;;;;;;;;;-8.42;73.62;94252.19;5028656;28;20739;-46
2023/02/12 01:08:55;;;;;;;;;;;;;;;-8.34;72.73;94248.25;5027816;28;19924;-45
2023/02/12 01:11:20;;;;;;;;;;;;;;;-8.41;73.11;94243.00;5028111;28;19917;-46
2023/02/12 01:13:46;;;;;;;;;;;;;;;-8.67;73.64;94246.50;5019067;28;19921;-47
2023/02/12 01:16:16;;;;;;;;;;;;;;;-8.73;74.50;94258.84;5018828;28;19948;-45
2023/02/12 01:18:41;;;;;;;;;;;;;;;-8.98;75.20;94251.19;5015474;28;19917;-46
2023/02/12 01:21:16;;;;;;;;;;;;;;;-9.00;75.78;94250.06;5024818;28;19962;-47
2023/02/12 01:23:42;;;;;;;;;;;;;;;-8.95;75.56;94236.25;5012130;28;19940;-47
2023/02/12 01:26:09;;;;;;;;;;;;;;;-8.96;75.68;94234.72;5016529;28;19924;-46
2023/02/12 01:28:35;;;;;;;;;;;;;;;-8.82;75.58;94239.84;5027263;28;19917;-46
2023/02/12 01:31:00;;;;;;;;;;;;;;;-8.94;73.92;94233.16;5018876;28;20423;-46
2023/02/12 01:33:25;;;;;;;;;;;;;;;-8.83;73.77;94239.09;5014813;28;19921;-47
2023/02/12 01:35:51;;;;;;;;;;;;;;;-8.68;74.62;94235.03;5018629;28;19929;-45
2023/02/12 01:38:16;;;;;;;;;;;;;;;-8.47;73.20;94219.78;5024803;28;19928;-47
2023/02/12 01:40:41;;;;;;;;;;;;;;;-8.85;73.29;94227.28;5026329;28;19928;-46
2023/02/12 01:43:09;;;;;;;;;;;;;;;-9.10;74.36;94227.69;5016529;28;20480;-47
2023/02/12 01:45:44;;;;;;;;;;;;;;;-9.10;74.14;94221.56;5017312;28;20445;-46
2023/02/12 01:48:09;;;;;;;;;;;;;;;-9.07;75.12;94226.13;5019076;28;20143;-48
2023/02/12 01:50:34;;;;;;;;;;;;;;;-9.09;74.26;94225.72;5014120;28;19913;-46
2023/02/12 01:52:59;;;;;;;;;;;;;;;-8.94;75.33;94216.38;5011718;28;19932;-46
2023/02/12 01:55:25;;;;;;;;;;;;;;;-8.81;74.44;94218.03;5024094;28;20559;-46
2023/02/12 01:57:50;;;;;;;;;;;;;;;-9.02;74.93;94207.69;5022199;28;19960;-46
2023/02/12 02:00:17;;;;;;;;;;;;;;;-8.96;75.00;94208.72;5017288;28;19913;-47
2023/02/12 02:02:44;;;;;;;;;;;;;;;-9.19;75.09;94211.38;5011590;28;19994;-47
2023/02/12 02:05:09;;;;;;;;;;;;;;;-9.11;75.58;94209.34;5019957;28;19924;-47
2023/02/12 02:07:34;;;;;;;;;;;;;;;-9.06;75.46;94198.97;5017081;28;20368;-47
2023/02/12 02:09:59;;;;;;;;;;;;;;;-9.15;75.70;94206.72;5021146;28;19917;-48
2023/02/12 02:15:08;;;;;;;;;;;;;;;-9.15;75.68;94192.59;5019113;28;19964;-48
2023/02/12 02:17:43;;;;;;;;;;;;;;;-8.99;76.85;94198.09;5021402;28;19965;-47
2023/02/12 02:20:29;;;;;;;;;;;;;;;-9.23;75.75;94207.25;5022665;28;19928;-46
2023/02/12 02:23:07;;;;;;;;;;;;;;;-9.17;76.83;94210.97;5025984;28;19927;-47
2023/02/12 02:25:45;;;;;;;;;;;;;;;-9.11;75.55;94207.44;5026109;28;19924;-48
2023/02/12 02:28:28;;;;;;;;;;;;;;;-9.03;75.76;94210.75;5021504;28;20401;-47
2023/02/12 02:30:54;;;;;;;;;;;;;;;-9.06;74.78;94200.88;5022784;28;19921;-46
2023/02/12 02:33:38;;;;;;;;;;;;;;;-9.17;75.99;94214.41;5021290;28;20329;-46
2023/02/12 02:36:12;;;;;;;;;;;;;;;-9.24;76.59;94213.72;5018398;28;20132;-46
2023/02/12 02:38:38;;;;;;;;;;;;;;;-9.31;76.79;94218.03;5019718;28;19971;-46
2023/02/12 02:41:06;;;;;;;;;;;;;;;-9.05;76.20;94216.50;5026428;28;20365;-46
2023/02/12 02:43:36;;;;;;;;;;;;;;;-8.86;75.51;94207.06;5022958;28;19913;-46
2023/02/12 02:46:05;;;;;;;;;;;;;;;-8.92;75.37;94209.41;5021817;28;20316;-47
2023/02/12 02:48:30;;;;;;;;;;;;;;;-8.78;75.97;94219.16;5025202;28;19917;-48
2023/02/12 02:50:57;;;;;;;;;;;;;;;-8.79;74.59;94215.72;5021751;28;19924;-49
2023/02/12 02:53:33;;;;;;;;;;;;;;;-8.74;74.16;94207.22;5022977;28;19913;-47
2023/02/12 02:55:58;;;;;;;;;;;;;;;-8.75;74.08;94213.00;5021271;28;19917;-48
2023/02/12 02:58:30;;;;;;;;;;;;;;;-8.66;73.81;94222.00;5024859;28;20400;-47
2023/02/12 03:01:01;;;;;;;;;;;;;;;-8.81;74.08;94230.66;5020004;28;19924;-45
2023/02/12 03:03:31;;;;;;;;;;;;;;;-8.72;73.02;94215.59;5017667;28;19918;-46
2023/02/12 03:06:20;;;;;;;;;;;;;;;-8.91;74.17;94220.88;5023307;28;19918;-47
2023/02/12 03:08:55;;;;;;;;;;;;;;;-8.90;74.07;94225.81;5018295;28;19982;-47
2023/02/12 03:11:21;;;;;;;;;;;;;;;-8.93;74.36;94218.63;5020234;28;19975;-46
2023/02/12 03:13:51;;;;;;;;;;;;;;;-9.23;75.02;94224.03;5023320;28;19921;-47
2023/02/12 03:16:16;;;;;;;;;;;;;;;-9.42;76.12;94214.75;5015446;28;20300;-47
2023/02/12 03:18:43;;;;;;;;;;;;;;;-9.16;75.25;94218.59;5021863;28;19928;-47
2023/02/12 03:21:16;;;;;;;;;;;;;;;-9.31;76.01;94214.59;5023340;28;19922;-46
2023/02/12 03:23:47;;;;;;;;;;;;;;;-9.17;75.53;94214.41;5011817;28;19913;-47
2023/02/12 03:26:17;;;;;;;;;;;;;;;-8.99;74.08;94208.78;5016495;28;20333;-48
2023/02/12 03:28:42;;;;;;;;;;;;;;;-8.94;73.40;94216.38;5028633;28;19921;-48
2023/02/12 03:31:10;;;;;;;;;;;;;;;-8.77;72.75;94212.66;5025118;28;19925;-46
2023/02/12 03:33:36;;;;;;;;;;;;;;;-8.75;73.45;94213.72;5026522;28;19932;-47
2023/02/12 03:36:02;;;;;;;;;;;;;;;-8.70;74.97;94207.16;5026475;28;20610;-47
2023/02/12 03:38:38;;;;;;;;;;;;;;;-9.05;75.03;94213.81;5020326;28;19917;-46
2023/02/12 03:41:03;;;;;;;;;;;;;;;-8.90;75.00;94207.09;5028470;28;19913;-47
2023/02/12 03:43:30;;;;;;;;;;;;;;;-9.01;75.98;94206.53;5016591;28;19943;-48
2023/02/12 03:46:00;;;;;;;;;;;;;;;-8.88;76.40;94212.06;5018138;28;19921;-47
2023/02/12 03:49:04;;;;;;;;;;;;;;;-8.74;76.15;94215.25;5029312;28;19917;-47
2023/02/12 03:51:39;;;;;;;;;;;;;;;-8.51;76.11;94217.19;5005473;28;19943;-46
2023/02/12 03:54:05;;;;;;;;;;;;;;;-8.47;75.52;94211.75;4989972;28;20191;-47
2023/02/12 03:56:32;;;;;;;;;;;;;;;-8.38;76.35;94201.28;5018060;28;19921;-47
2023/02/12 03:58:57;;;;;;;;;;;;;;;-8.10;75.46;94200.72;5028416;28;20499;-48
2023/02/12 04:01:22;;;;;;;;;;;;;;;-8.00;75.01;94205.13;5026565;28;19952;-48
2023/02/12 04:03:48;;;;;;;;;;;;;;;-7.84;74.32;94215.91;5028202;28;19921;-48
2023/02/12 04:06:20;;;;;;;;;;;;;;;-7.74;72.79;94209.59;5020727;28;20336;-47
2023/02/12 04:08:46;;;;;;;;;;;;;;;-7.61;72.98;94207.03;5028759;28;19982;-49
2023/02/12 04:11:14;;;;;;;;;;;;;;;-7.68;73.91;94217.88;5020103;28;19917;-46
2023/02/12 04:13:51;;;;;;;;;;;;;;;-7.75;74.62;94213.41;5027732;28;19932;-47
2023/02/12 04:16:22;;;;;;;;;;;;;;;-7.39;74.01;94216.13;5024853;28;20002;-48
2023/02/12 04:18:50;;;;;;;;;;;;;;;-7.36;73.74;94201.91;5017926;28;19928;-47
2023/02/12 04:21:25;;;;;;;;;;;;;;;-7.41;73.90;94192.44;5016734;28;19921;-49
2023/02/12 04:23:53;;;;;;;;;;;;;;;-7.15;73.54;94202.19;5027659;28;19917;-47
2023/02/12 04:26:21;;;;;;;;;;;;;;;-7.23;74.12;94200.81;5025332;28;19955;-47
2023/02/12 04:29:05;;;;;;;;;;;;;;;-7.00;73.46;94205.31;5027157;28;19919;-48
2023/02/12 04:31:32;;;;;;;;;;;;;;;-7.22;73.31;94205.03;5024077;28;19918;-47
2023/02/12 04:34:06;;;;;;;;;;;;;;;-7.24;74.09;94203.94;5021749;28;19925;-46
2023/02/12 04:36:33;;;;;;;;;;;;;;;-7.15;73.56;94201.44;5027742;28;20004;-49
2023/02/12 04:39:02;;;;;;;;;;;;;;;-6.93;73.32;94207.84;5021401;28;19920;-46
2023/02/12 04:41:27;;;;;;;;;;;;;;;-6.95;73.44;94202.09;5027240;28;19921;-46
2023/02/12 04:43:53;;;;;;;;;;;;;;;-7.13;75.65;94207.13;5025981;28;19921;-47
2023/02/12 04:46:18;;;;;;;;;;;;;;;-7.07;76.03;94202.78;5024601;28;20395;-46
2023/02/12 04:48:53;;;;;;;;;;;;;;;-7.09;76.52;94205.88;5019042;28;19952;-47
2023/02/12 04:51:19;;;;;;;;;;;;;;;-7.05;76.06;94205.78;5019647;28;19917;-48
2023/02/12 04:53:44;;;;;;;;;;;;;;;-7.04;77.15;94204.63;5023562;28;19924;-47
2023/02/12 04:56:10;;;;;;;;;;;;;;;-6.85;76.49;94197.69;5020232;28;19943;-47
2023/02/12 04:58:36;;;;;;;;;;;;;;;-6.87;77.69;94197.34;5020545;28;19970;-46
2023/02/12 05:01:01;;;;;;;;;;;;;;;-6.80;77.66;94200.63;5018078;28;19913;-46
2023/02/12 05:03:27;;;;;;;;;;;;;;;-6.72;77.62;94201.97;5016638;28;19913;-46
2023/02/12 05:05:52;;;;;;;;;;;;;;;-6.51;77.49;94193.38;5027772;28;20385;-47
2023/02/12 05:08:17;;;;;;;;;;;;;;;-6.53;77.00;94193.03;5023432;28;19920;-48
2023/02/12 05:10:42;;;;;;;;;;;;;;;-6.41;77.98;94205.78;5027504;28;19917;-47
2023/02/12 05:13:09;;;;;;;;;;;;;;;-6.36;78.21;94197.22;5028161;28;20290;-49
2023/02/12 05:15:34;;;;;;;;;;;;;;;-6.15;76.56;94205.91;5026986;28;19921;-47
2023/02/12 05:17:59;;;;;;;;;;;;;;;-6.09;76.37;94199.59;5024218;28;19922;-49
2023/02/12 05:20:24;;;;;;;;;;;;;;;-6.46;75.18;94194.81;5015586;28;19916;-47
2023/02/12 05:22:51;;;;;;;;;;;;;;;-6.45;75.11;94194.38;5017651;28;19921;-49
2023/02/12 05:25:16;;;;;;;;;;;;;;;-6.39;74.16;94208.78;5018977;28;19987;-48
2023/02/12 05:27:41;;;;;;;;;;;;;;;-6.48;75.27;94195.22;5016185;28;19937;-50
2023/02/12 05:30:08;;;;;;;;;;;;;;;-6.38;76.03;94207.63;5018465;28;20412;-49
2023/02/12 05:32:33;;;;;;;;;;;;;;;-5.95;74.40;94209.22;5015238;28;19968;-47
2023/02/12 05:34:58;;;;;;;;;;;;;;;-5.80;73.94;94210.31;5019023;28;20032;-47
2023/02/12 05:37:24;;;;;;;;;;;;;;;-6.12;76.14;94215.81;5009936;28;19921;-47
2023/02/12 05:39:49;;;;;;;;;;;;;;;-6.06;77.05;94222.19;5013095;28;19921;-47
2023/02/12 05:42:14;;;;;;;;;;;;;;;-5.98;76.87;94228.88;5017832;28;19917;-49
2023/02/12 05:44:40;;;;;;;;;;;;;;;-5.90;76.89;94225.59;5024680;28;19927;-47
2023/02/12 05:47:05;;;;;;;;;;;;;;;-5.82;77.25;94234.94;5013889;28;19917;-47
2023/02/12 05:49:30;;;;;;;;;;;;;;;-5.87;76.77;94242.81;5023185;28;19921;-47
2023/02/12 05:51:55;;;;;;;;;;;;;;;-5.90;77.97;94243.66;5016888;28;19956;-46
2023/02/12 05:54:21;;;;;;;;;;;;;;;-5.82;77.61;94240.31;5019652;28;19925;-47
2023/02/12 05:56:46;;;;;;;;;;;;;;;-5.84;77.72;94241.94;5021193;28;19917;-47
2023/02/12 05:59:16;;;;;;;;;;;;;;;-5.73;78.54;94251.22;5022862;28;19928;-48
2023/02/12 06:01:42;;;;;;;;;;;;;;;-5.55;79.43;94245.38;5021015;28;20012;-48
2023/02/12 06:04:09;;;;;;;;;;;;;;;-5.19;78.24;94242.41;5021647;28;20004;-47
2023/02/12 06:06:34;;;;;;;;;;;;;;;-5.34;78.39;94250.16;5023511;28;20380;-46
2023/02/12 06:09:00;;;;;;;;;;;;;;;-5.40;79.23;94249.16;5016195;28;20004;-47
2023/02/12 06:11:25;;;;;;;;;;;;;;;-5.33;79.49;94253.59;5023068;28;19921;-48
2023/02/12 06:13:51;;;;;;;;;;;;;;;-5.23;79.83;94258.69;5020722;28;19925;-46
2023/02/12 06:16:20;;;;;;;;;;;;;;;-5.28;80.75;94253.81;5023692;28;20005;-47
2023/02/12 06:18:45;;;;;;;;;;;;;;;-5.21;81.96;94258.25;5023010;28;19921;-47
2023/02/12 06:21:10;;;;;;;;;;;;;;;-5.07;82.42;94263.22;5024637;28;19940;-47
2023/02/12 06:23:36;;;;;;;;;;;;;;;-4.89;82.08;94271.53;5025452;28;20427;-46
2023/02/12 06:26:01;;;;;;;;;;;;;;;-4.77;81.28;94262.72;5021322;28;19951;-46
2023/02/12 06:28:26;;;;;;;;;;;;;;;-4.70;80.82;94262.50;5021726;28;19944;-46
2023/02/12 06:30:51;;;;;;;;;;;;;;;-4.39;79.10;94268.06;5022964;28;19970;-47
2023/02/12 06:33:17;;;;;;;;;;;;;;;-4.33;79.37;94269.06;5017614;28;19928;-46
2023/02/12 06:35:42;;;;;;;;;;;;;;;-4.14;78.01;94265.34;5024993;28;19924;-45
2023/02/12 06:38:08;;;;;;;;;;;;;;;-3.99;78.33;94267.16;5016942;28;19999;-47
2023/02/12 06:40:34;;;;;;;;;;;;;;;-3.92;78.06;94268.88;5022106;28;19922;-46
2023/02/12 06:42:59;;;;;;;;;;;;;;;-4.00;79.77;94271.03;5021884;28;19929;-46
2023/02/12 06:45:24;;;;;;;;;;;;;;;-3.97;79.94;94272.09;5024282;28;19924;-49
2023/02/12 06:47:50;;;;;;;;;;;;;;;-3.98;80.79;94279.44;5023573;28;20043;-47
2023/02/12 06:50:15;;;;;;;;;;;;;;;-3.79;80.61;94276.91;5027772;28;19952;-47
2023/02/12 06:52:41;;;;;;;;;;;;;;;-3.55;80.62;94278.03;5023855;28;20384;-46
2023/02/12 06:55:06;;;;;;;;;;;;;;;-3.30;76.95;94284.06;5021921;28;20368;-47
2023/02/12 06:57:31;;;;;;;;;;;;;;;-3.20;76.92;94282.91;5021645;28;19960;-46
2023/02/12 06:59:57;;;;;;;;;;;;;;;-3.19;77.26;94289.84;5024204;28;19917;-46
2023/02/12 07:02:22;;;;;;;;;;;;;;;-3.22;77.78;94298.06;5020876;28;19920;-47
2023/02/12 07:04:47;;;;;;;;;;;;;;;-2.94;77.75;94297.03;5026204;28;19914;-46
2023/02/12 07:07:13;;;;;;;;;;;;;;;-2.97;77.91;94275.56;5020552;28;20015;-47
2023/02/12 07:09:38;;;;;;;;;;;;;;;-2.56;77.16;94299.50;5021350;28;19917;-46
2023/02/12 07:12:03;;;;;;;;;;;;;;;-2.61;75.68;94298.13;5018316;28;19925;-46
2023/02/12 07:14:29;;;;;;;;;;;;;;;-2.63;75.34;94299.75;5026815;28;19965;-48
2023/02/12 07:16:54;;;;;;;;;;;;;;;-2.59;76.76;94297.66;5018666;28;19929;-47
2023/02/12 07:19:20;;;;;;;;;;;;;;;-2.46;73.77;94301.03;5023139;28;19921;-48
2023/02/12 07:21:45;;;;;;;;;;;;;;;-2.23;74.18;94308.63;5025976;28;19976;-46
2023/02/12 07:24:11;;;;;;;;;;;;;;;-1.73;73.56;94307.41;5019582;28;19921;-47
2023/02/12 07:26:36;;;;;;;;;;;;;;;-1.42;71.25;94302.63;5023404;28;19913;-47
2023/02/12 07:29:01;;;;;;;;;;;;;;;-1.50;69.56;94309.56;5020746;28;20305;-47
2023/02/12 07:31:27;;;;;;;;;;;;;;;-1.36;69.12;94303.53;5026466;28;19924;-47
2023/02/12 07:33:53;;;;;;;;;;;;;;;-1.15;66.46;94316.16;5022139;28;19925;-48
2023/02/12 07:36:19;;;;;;;;;;;;;;;-0.59;67.16;94320.31;5025252;28;19944;-46
2023/02/12 07:38:44;;;;;;;;;;;;;;;-0.28;65.13;94323.56;5024156;28;19929;-47
2023/02/12 07:41:17;;;;;;;;;;;;;;;-0.63;63.39;94320.50;5022187;28;20028;-47
2023/02/12 07:43:43;;;;;;;;;;;;;;;-0.55;62.72;94323.63;5025695;28;19917;-47
2023/02/12 07:46:15;;;;;;;;;;;;;;;-0.47;63.92;94317.41;5022805;28;19975;-47
2023/02/12 07:48:41;;;;;;;;;;;;;;;-0.13;62.10;94302.69;5018195;28;19921;-48
2023/02/12 07:51:07;;;;;;;;;;;;;;;0.84;61.37;94328.22;5022764;28;19924;-47
2023/02/12 07:53:33;;;;;;;;;;;;;;;1.57;59.77;94327.56;5021839;28;20328;-47
2023/02/12 07:56:08;;;;;;;;;;;;;;;1.56;57.26;94324.06;5025625;28;19921;-47
2023/02/12 07:58:33;;;;;;;;;;;;;;;1.79;54.82;94327.94;5023469;28;20447;-47
2023/02/12 08:00:59;;;;;;;;;;;;;;;1.92;56.16;94320.22;5026040;28;20196;-47
2023/02/12 08:03:24;;;;;;;;;;;;;;;2.18;53.87;94324.59;5020870;28;20495;-47
2023/02/12 08:05:49;;;;;;;;;;;;;;;2.03;53.40;94318.44;5024803;28;19921;-46
2023/02/12 08:08:14;;;;;;;;;;;;;;;2.95;51.93;94321.38;5019240;28;20508;-47
2023/02/12 08:10:40;;;;;;;;;;;;;;;4.02;50.26;94328.16;5019683;28;19928;-47
2023/02/12 08:13:05;;;;;;;;;;;;;;;5.03;48.04;94327.50;5027074;28;20388;-46
2023/02/12 08:15:30;;;;;;;;;;;;;;;5.34;46.08;94328.13;5026598;28;19932;-46
2023/02/12 08:17:55;;;;;;;;;;;;;;;4.93;46.03;94324.25;5025273;28;20009;-47
2023/02/12 08:20:21;;;;;;;;;;;;;;;4.78;46.62;94326.41;5019155;28;20380;-46
2023/02/12 08:22:46;;;;;;;;;;;;;;;4.20;48.31;94335.97;5017001;28;19965;-48
2023/02/12 08:25:11;;;;;;;;;;;;;;;4.55;48.96;94333.72;5018428;28;20470;-48
2023/02/12 08:27:36;;;;;;;;;;;;;;;5.88;46.72;94330.75;5017370;28;20008;-47
2023/02/12 08:30:02;;;;;;;;;;;;;;;6.31;44.67;94340.22;5021420;28;20324;-49
2023/02/12 08:32:28;;;;;;;;;;;;;;;5.84;45.06;94341.97;5019292;28;19971;-50
2023/02/12 08:34:53;;;;;;;;;;;;;;;4.31;48.98;94341.53;5015655;28;19921;-47
2023/02/12 08:37:18;;;;;;;;;;;;;;;4.18;50.32;94351.38;5017855;28;20389;-47
2023/02/12 08:39:44;;;;;;;;;;;;;;;3.61;52.17;94357.59;5017173;28;20075;-48
2023/02/12 08:42:09;;;;;;;;;;;;;;;3.08;53.90;94360.72;5018833;28;20423;-48
2023/02/12 08:44:35;;;;;;;;;;;;;;;3.31;53.07;94363.72;5016640;28;19932;-47
2023/02/12 08:47:00;;;;;;;;;;;;;;;2.79;55.88;94363.59;5021147;28;20769;-51
2023/02/12 08:49:27;;;;;;;;;;;;;;;2.49;56.15;94373.06;5019103;28;20002;-47
2023/02/12 08:51:53;;;;;;;;;;;;;;;1.94;58.82;94366.78;5019027;28;20027;-47
2023/02/12 08:54:22;;;;;;;;;;;;;;;1.69;57.87;94370.81;5017318;28;19979;-47
2023/02/12 08:56:48;;;;;;;;;;;;;;;1.91;56.81;94370.44;5023244;28;19953;-47
2023/02/12 08:59:14;;;;;;;;;;;;;;;2.10;57.10;94374.50;5016566;28;20012;-47
2023/02/12 09:01:42;;;;;;;;;;;;;;;2.42;56.14;94368.03;5016984;28;20357;-47
2023/02/12 09:04:09;;;;;;;;;;;;;;;3.11;54.28;94363.72;5012249;28;19990;-46
2023/02/12 09:06:34;;;;;;;;;;;;;;;3.35;53.61;94375.16;5016650;28;19971;-49
2023/02/12 09:09:00;;;;;;;;;;;;;;;4.28;52.89;94375.31;5019282;28;20485;-46
2023/02/12 09:11:29;;;;;;;;;;;;;;;6.14;48.59;94369.66;5017498;28;19927;-46
2023/02/12 09:13:55;;;;;;;;;;;;;;;8.79;43.53;94373.25;5012300;28;19948;-44
2023/02/12 09:16:20;;;;;;;;;;;;;;;10.67;39.31;94375.66;5017984;28;19921;-47
2023/02/12 09:18:46;;;;;;;;;;;;;;;11.80;36.36;94366.28;5009949;28;19928;-47
2023/02/12 09:21:12;;;;;;;;;;;;;;;11.24;35.28;94371.41;5015302;28;19930;-47
2023/02/12 09:23:38;;;;;;;;;;;;;;;10.27;36.90;94374.03;5019194;28;20012;-47
2023/02/12 09:26:04;;;;;;;;;;;;;;;11.00;37.22;94371.59;5016515;28;20020;-46
2023/02/12 09:28:29;;;;;;;;;;;;;;;11.29;35.70;94378.84;5015642;28;19921;-46
2023/02/12 09:30:55;;;;;;;;;;;;;;;9.24;39.68;94383.84;5010875;28;19928;-47
2023/02/12 09:33:21;;;;;;;;;;;;;;;7.69;43.27;94394.03;5011826;28;19927;-47
2023/02/12 09:35:47;;;;;;;;;;;;;;;6.77;46.30;94395.31;5012421;28;19917;-46
2023/02/12 09:38:12;;;;;;;;;;;;;;;6.11;47.35;94387.84;5021877;28;19928;-47
2023/02/12 09:40:43;;;;;;;;;;;;;;;4.79;51.08;94384.59;5020678;28;20320;-47
2023/02/12 09:43:27;;;;;;;;;;;;;;;4.90;52.31;94392.88;5017461;28;19928;-47
2023/02/12 09:46:11;;;;;;;;;;;;;;;5.16;51.10;94388.03;5015767;28;19913;-47
2023/02/12 09:48:43;;;;;;;;;;;;;;;5.21;51.35;94382.59;5015173;28;20321;-47
2023/02/12 09:51:08;;;;;;;;;;;;;;;4.65;51.14;94386.28;5017471;28;19956;-47
2023/02/12 09:53:34;;;;;;;;;;;;;;;4.37;51.98;94399.00;5025257;28;19917;-46
2023/02/12 09:55:59;;;;;;;;;;;;;;;4.05;53.14;94394.75;5017624;28;20015;-47
2023/02/12 09:58:35;;;;;;;;;;;;;;;3.69;53.40;94398.88;5017509;28;20299;-47
2023/02/12 10:01:02;;;;;;;;;;;;;;;3.55;56.11;94391.53;5024231;28;20676;-46
2023/02/12 10:03:28;;;;;;;;;;;;;;;3.70;55.76;94398.38;5020392;28;19921;-46
2023/02/12 10:05:56;;;;;;;;;;;;;;;3.55;56.02;94407.91;5021581;28;20428;-46
2023/02/12 10:08:22;;;;;;;;;;;;;;;3.45;56.17;94404.56;5019743;28;19917;-46
2023/02/12 10:10:49;;;;;;;;;;;;;;;3.53;55.49;94405.66;5018812;28;20606;-46
2023/02/12 10:13:33;;;;;;;;;;;;;;;3.50;56.85;94405.88;5019945;28;19917;-46
2023/02/12 10:16:09;;;;;;;;;;;;;;;3.84;55.59;94402.25;5014594;28;19929;-47
2023/02/12 10:18:40;;;;;;;;;;;;;;;4.08;56.30;94401.97;5016899;28;19921;-46
2023/02/12 10:21:23;;;;;;;;;;;;;;;4.07;56.56;94398.47;5015198;28;19917;-46
2023/02/12 10:24:04;;;;;;;;;;;;;;;4.49;55.29;94400.56;5025340;28;20363;-47
2023/02/12 10:26:30;;;;;;;;;;;;;;;4.85;54.12;94404.53;5019498;28;19917;-46
2023/02/12 10:29:03;;;;;;;;;;;;;;;4.95;52.60;94403.84;5015550;28;19956;-48
2023/02/12 10:31:36;;;;;;;;;;;;;;;4.57;53.11;94391.44;5021510;28;19920;-48
2023/02/12 10:34:03;;;;;;;;;;;;;;;4.99;53.41;94395.41;5015683;28;19924;-47
2023/02/12 10:36:31;;;;;;;;;;;;;;;5.21;52.67;94393.53;5017450;28;19928;-47
2023/02/12 10:38:58;;;;;;;;;;;;;;;5.15;51.85;94386.53;5019941;28;19921;-45
2023/02/12 10:41:23;;;;;;;;;;;;;;;4.67;52.21;94389.25;5016305;28;19917;-47
2023/02/12 10:43:48;;;;;;;;;;;;;;;4.34;53.99;94394.47;5017138;28;19945;-47
2023/02/12 10:46:14;;;;;;;;;;;;;;;4.63;53.19;94386.00;5014315;28;20086;-47
2023/02/12 10:48:39;;;;;;;;;;;;;;;4.34;54.54;94389.00;5012706;28;19927;-47
2023/02/12 10:51:05;;;;;;;;;;;;;;;4.52;54.71;94394.13;5017570;28;20609;-46
2023/02/12 10:53:30;;;;;;;;;;;;;;;4.60;53.04;94387.72;5016875;28;19928;-47
2023/02/12 10:56:07;;;;;;;;;;;;;;;4.27;53.92;94386.72;5013715;28;19928;-47
2023/02/12 10:58:33;;;;;;;;;;;;;;;4.17;55.24;94390.88;5016603;28;19921;-46
2023/02/12 11:00:58;;;;;;;;;;;;;;;4.37;54.32;94391.53;5016319;28;19918;-47
2023/02/12 11:03:28;;;;;;;;;;;;;;;4.02;55.06;94385.53;5021782;28;19913;-47
2023/02/12 11:05:53;;;;;;;;;;;;;;;3.77;55.87;94384.31;5013960;28;19917;-46
2023/02/12 11:08:24;;;;;;;;;;;;;;;3.82;55.65;94382.84;5011945;28;19921;-47
2023/02/12 11:10:50;;;;;;;;;;;;;;;3.77;56.29;94372.63;5014483;28;19925;-48
2023/02/12 11:13:22;;;;;;;;;;;;;;;3.78;56.04;94380.34;5019333;28;19987;-47
2023/02/12 11:15:47;;;;;;;;;;;;;;;3.47;57.45;94390.44;5018827;28;20092;-47
2023/02/12 11:18:21;;;;;;;;;;;;;;;3.67;57.05;94390.41;5010120;28;20085;-48
2023/02/12 11:20:50;;;;;;;;;;;;;;;3.54;55.49;94385.31;5016455;28;19921;-48
2023/02/12 11:23:32;;;;;;;;;;;;;;;3.69;56.34;94393.41;5013940;28;19925;-48
2023/02/12 11:25:59;;;;;;;;;;;;;;;3.49;57.32;94398.88;5012911;28;19939;-47
2023/02/12 11:28:24;;;;;;;;;;;;;;;3.59;56.55;94386.59;5019393;28;20397;-48
2023/02/12 11:30:52;;;;;;;;;;;;;;;3.64;58.93;94396.81;5021291;28;19931;-47
2023/02/12 11:33:25;;;;;;;;;;;;;;;3.71;57.56;94393.66;5020520;28;19920;-47
2023/02/12 11:35:51;;;;;;;;;;;;;;;3.92;57.40;94388.91;5014117;28;20010;-46
2023/02/12 11:38:24;;;;;;;;;;;;;;;4.10;57.21;94394.78;5013886;28;19990;-47
2023/02/12 11:40:50;;;;;;;;;;;;;;;4.17;55.12;94385.41;5019103;28;19917;-47
2023/02/12 11:43:16;;;;;;;;;;;;;;;4.42;55.68;94384.59;5016995;28;20380;-47
2023/02/12 11:45:48;;;;;;;;;;;;;;;4.79;55.03;94393.56;5022570;28;19921;-48
2023/02/12 11:48:18;;;;;;;;;;;;;;;4.86;54.81;94397.81;5017527;28;20297;-49
2023/02/12 11:50:47;;;;;;;;;;;;;;;4.89;54.25;94388.66;5022836;28;20349;-47
2023/02/12 11:53:17;;;;;;;;;;;;;;;5.14;53.58;94399.47;5015097;28;19925;-48
2023/02/12 11:55:43;;;;;;;;;;;;;;;5.18;54.44;94396.50;5021954;28;19931;-47
2023/02/12 11:58:15;;;;;;;;;;;;;;;5.24;53.16;94380.88;5017555;28;20345;-47
2023/02/12 12:00:52;;;;;;;;;;;;;;;5.47;52.78;94400.84;5019788;28;19961;-47
2023/02/12 12:03:17;;;;;;;;;;;;;;;5.68;52.61;94402.16;5024527;28;19928;-46
2023/02/12 12:05:50;;;;;;;;;;;;;;;5.72;53.08;94397.19;5024747;28;19917;-48
2023/02/12 12:08:34;;;;;;;;;;;;;;;5.51;53.19;94398.63;5020280;28;19959;-46
2023/02/12 12:11:06;;;;;;;;;;;;;;;5.58;52.04;94404.38;5020027;28;19922;-48
2023/02/12 12:13:58;;;;;;;;;;;;;;;5.47;52.94;94409.06;5018903;28;20044;-47
2023/02/12 12:22:34;;;;;;;;;;;;;;;4.93;54.21;94430.97;5020418;28;19971;-47
2023/02/12 12:25:05;;;;;;;;;;;;;;;4.94;54.02;94426.97;4963163;28;20532;-47
2023/02/12 12:30:19;;;;;;;;;;;;;;;5.05;54.21;94420.81;5020998;28;19923;-48
2023/02/12 12:32:45;;;;;;;;;;;;;;;4.82;54.70;94430.13;5019915;28;19924;-47
2023/02/12 12:35:10;;;;;;;;;;;;;;;4.49;55.38;94425.16;5020207;28;19921;-47
2023/02/12 12:37:35;;;;;;;;;;;;;;;3.93;57.29;94429.41;5018058;28;19940;-46
2023/02/12 12:40:20;;;;;;;;;;;;;;;3.79;57.76;94431.00;5019402;28;19924;-48
2023/02/12 12:42:54;;;;;;;;;;;;;;;3.83;58.45;94439.00;5017274;28;19924;-49
2023/02/12 12:45:38;;;;;;;;;;;;;;;3.80;59.33;94440.72;5014821;28;19961;-48
2023/02/12 12:48:22;;;;;;;;;;;;;;;4.44;57.55;94437.56;5021859;28;19924;-49
2023/02/12 12:50:58;;;;;;;;;;;;;;;5.18;55.38;94429.34;5019775;28;19936;-48
2023/02/12 12:53:26;;;;;;;;;;;;;;;5.06;54.89;94423.09;5016871;28;19931;-48
2023/02/12 12:55:51;;;;;;;;;;;;;;;5.52;54.94;94425.53;5020969;28;19929;-48
2023/02/12 12:58:17;;;;;;;;;;;;;;;5.33;54.70;94430.66;5013734;28;20483;-48
2023/02/12 13:00:42;;;;;;;;;;;;;;;5.55;53.58;94434.75;5017995;28;19921;-47
2023/02/12 13:03:20;;;;;;;;;;;;;;;5.96;53.16;94431.16;5014897;28;20726;-48
2023/02/12 13:05:48;;;;;;;;;;;;;;;5.67;52.73;94439.03;5019092;28;20317;-46